createdAt,value
2018-07-06T00:00:05.373Z,10.80
2018-07-06T00:01:05.378Z,10.70
2018-07-06T00:02:05.345Z,9.40
2018-07-06T00:03:05.338Z,9.60
2018-07-06T00:04:05.323Z,9.30
2018-07-06T00:05:05.313Z,9.20
2018-07-06T00:06:05.337Z,9.70
2018-07-06T00:07:05.296Z,11.00
2018-07-06T00:08:05.285Z,10.30
2018-07-06T00:09:05.272Z,11.50
2018-07-06T00:10:05.259Z,10.80
2018-07-06T00:11:05.342Z,10.60
2018-07-06T00:12:05.239Z,10.50
2018-07-06T00:13:05.228Z,11.70
2018-07-06T00:14:05.219Z,11.90
2018-07-06T00:15:05.210Z,10.50
2018-07-06T00:16:05.193Z,10.30
2018-07-06T00:17:05.187Z,10.40
2018-07-06T00:18:05.182Z,11.00
2018-07-06T00:19:05.167Z,10.80
2018-07-06T00:20:05.180Z,12.10
2018-07-06T00:21:05.146Z,11.30
2018-07-06T00:22:05.148Z,11.70
2018-07-06T00:23:05.122Z,10.10
2018-07-06T00:24:05.109Z,10.20
2018-07-06T00:25:05.098Z,10.20
2018-07-06T00:26:05.090Z,9.70
2018-07-06T00:27:05.108Z,9.60
2018-07-06T00:28:05.070Z,10.40
2018-07-06T00:29:05.057Z,10.10
2018-07-06T00:30:05.044Z,10.20
2018-07-06T00:31:05.031Z,10.60
2018-07-06T00:32:05.027Z,10.80
2018-07-06T00:33:05.017Z,10.80
2018-07-06T00:34:05.002Z,11.40
2018-07-06T00:35:04.988Z,12.50
2018-07-06T00:36:04.978Z,11.40
2018-07-06T00:37:04.996Z,11.90
2018-07-06T00:38:04.972Z,12.80
2018-07-06T00:39:04.957Z,12.20
2018-07-06T00:40:04.944Z,12.70
2018-07-06T00:41:04.928Z,13.90
2018-07-06T00:42:04.917Z,12.90
2018-07-06T00:43:04.908Z,13.10
2018-07-06T00:44:04.890Z,14.60
2018-07-06T00:45:04.888Z,13.50
2018-07-06T00:46:04.879Z,14.00
2018-07-06T00:47:04.866Z,13.00
2018-07-06T00:48:04.851Z,12.70
2018-07-06T00:49:04.840Z,13.50
2018-07-06T00:50:04.833Z,14.50
2018-07-06T00:51:04.825Z,14.60
2018-07-06T00:52:04.812Z,14.70
2018-07-06T00:53:04.838Z,13.80
2018-07-06T00:54:04.786Z,13.60
2018-07-06T00:55:04.776Z,15.30
2018-07-06T00:56:04.778Z,14.60
2018-07-06T00:57:04.754Z,14.40
2018-07-06T00:58:04.759Z,14.80
2018-07-06T00:59:04.741Z,14.70
2018-07-06T01:00:04.724Z,17.30
2018-07-06T01:01:04.719Z,15.50
2018-07-06T01:02:04.701Z,16.20
2018-07-06T01:03:04.701Z,17.90
2018-07-06T01:04:04.689Z,15.20
2018-07-06T01:05:04.669Z,18.00
2018-07-06T01:06:04.656Z,18.20
2018-07-06T01:07:04.650Z,14.50
2018-07-06T01:08:04.632Z,18.10
2018-07-06T01:09:04.625Z,15.30
2018-07-06T01:10:04.619Z,15.90
2018-07-06T01:11:04.607Z,17.00
2018-07-06T01:12:04.616Z,16.60
2018-07-06T01:13:04.581Z,20.40
2018-07-06T01:14:04.571Z,18.30
2018-07-06T01:15:04.555Z,17.20
2018-07-06T01:16:04.545Z,17.50
2018-07-06T01:17:04.539Z,16.50
2018-07-06T01:18:04.528Z,15.70
2018-07-06T01:19:04.522Z,18.60
2018-07-06T01:20:04.502Z,17.70
2018-07-06T01:21:04.493Z,17.10
2018-07-06T01:22:04.485Z,19.30
2018-07-06T01:23:04.478Z,16.50
2018-07-06T01:24:04.465Z,19.30
2018-07-06T01:25:04.459Z,18.40
2018-07-06T01:26:04.437Z,20.60
2018-07-06T01:27:04.429Z,15.60
2018-07-06T01:28:04.435Z,17.60
2018-07-06T01:29:04.428Z,16.50
2018-07-06T01:30:04.403Z,17.50
2018-07-06T01:31:04.388Z,18.80
2018-07-06T01:32:04.377Z,16.70
2018-07-06T01:33:04.369Z,18.60
2018-07-06T01:34:04.386Z,17.60
2018-07-06T01:35:04.341Z,17.40
2018-07-06T01:36:04.331Z,20.50
2018-07-06T01:37:04.323Z,21.50
2018-07-06T01:38:04.305Z,19.00
2018-07-06T01:39:04.299Z,18.30
2018-07-06T01:40:04.288Z,22.60
2018-07-06T01:41:04.273Z,18.90
2018-07-06T01:42:04.269Z,20.10
2018-07-06T01:43:04.254Z,21.60
2018-07-06T01:44:04.273Z,21.20
2018-07-06T01:45:04.236Z,20.40
2018-07-06T01:46:04.218Z,20.00
2018-07-06T01:47:04.210Z,20.50
2018-07-06T01:48:04.199Z,21.40
2018-07-06T01:49:04.193Z,18.50
2018-07-06T01:50:04.191Z,21.70
2018-07-06T01:51:04.168Z,23.20
2018-07-06T01:52:04.162Z,19.30
2018-07-06T01:53:04.141Z,17.80
2018-07-06T01:54:04.138Z,18.60
2018-07-06T01:55:04.126Z,21.10
2018-07-06T01:56:04.114Z,17.20
2018-07-06T01:57:04.105Z,17.60
2018-07-06T01:58:04.094Z,19.70
2018-07-06T01:59:04.079Z,16.60
2018-07-06T02:00:04.103Z,16.70
2018-07-06T02:01:04.054Z,17.40
2018-07-06T02:02:04.061Z,16.50
2018-07-06T02:03:04.039Z,18.50
2018-07-06T02:04:04.027Z,16.90
2018-07-06T02:05:04.058Z,17.20
2018-07-06T02:06:04.004Z,19.30
2018-07-06T02:07:03.992Z,19.20
2018-07-06T02:08:03.983Z,19.00
2018-07-06T02:09:03.977Z,17.60
2018-07-06T02:10:03.959Z,20.00
2018-07-06T02:11:03.951Z,20.40
2018-07-06T02:12:03.937Z,21.80
2018-07-06T02:13:03.926Z,21.50
2018-07-06T02:14:03.919Z,19.10
2018-07-06T02:15:03.912Z,20.70
2018-07-06T02:16:03.899Z,22.70
2018-07-06T02:17:03.895Z,19.90
2018-07-06T02:18:03.895Z,23.90
2018-07-06T02:19:03.860Z,21.70
2018-07-06T02:20:03.850Z,23.30
2018-07-06T02:21:03.856Z,23.60
2018-07-06T02:22:03.833Z,20.70
2018-07-06T02:23:03.821Z,21.40
2018-07-06T02:24:03.807Z,22.00
2018-07-06T02:25:03.794Z,21.60
2018-07-06T02:26:03.829Z,23.10
2018-07-06T02:27:03.776Z,22.10
2018-07-06T02:28:03.766Z,23.10
2018-07-06T02:29:03.759Z,23.10
2018-07-06T02:30:03.740Z,20.30
2018-07-06T02:31:03.736Z,21.70
2018-07-06T02:32:03.724Z,24.80
2018-07-06T02:33:03.710Z,21.90
2018-07-06T02:34:03.702Z,22.50
2018-07-06T02:35:03.690Z,23.00
2018-07-06T02:36:03.678Z,19.00
2018-07-06T02:37:03.684Z,23.30
2018-07-06T02:38:03.652Z,21.30
2018-07-06T02:39:03.643Z,22.10
2018-07-06T02:40:03.636Z,20.20
2018-07-06T02:41:03.627Z,22.10
2018-07-06T02:42:03.610Z,21.00
2018-07-06T02:43:03.600Z,20.80
2018-07-06T02:44:03.590Z,20.90
2018-07-06T02:45:03.620Z,24.00
2018-07-06T02:46:03.571Z,20.40
2018-07-06T02:47:03.579Z,21.10
2018-07-06T02:48:03.546Z,20.80
2018-07-06T02:49:03.571Z,20.30
2018-07-06T02:50:03.526Z,16.10
2018-07-06T02:51:03.520Z,18.50
2018-07-06T02:52:03.510Z,17.70
2018-07-06T02:53:03.494Z,17.30
2018-07-06T02:54:03.481Z,17.00
2018-07-06T02:55:03.471Z,17.50
2018-07-06T02:56:03.465Z,20.00
2018-07-06T02:57:03.484Z,17.50
2018-07-06T02:58:03.437Z,17.10
2018-07-06T02:59:03.427Z,17.90
2018-07-06T03:00:03.413Z,17.20
2018-07-06T03:01:03.404Z,19.30
2018-07-06T03:02:03.444Z,17.30
2018-07-06T03:03:03.436Z,15.90
2018-07-06T03:04:03.383Z,18.50
2018-07-06T03:05:03.377Z,19.60
2018-07-06T03:06:03.365Z,16.90
2018-07-06T03:07:03.339Z,16.50
2018-07-06T03:08:03.326Z,17.50
2018-07-06T03:09:03.317Z,18.30
2018-07-06T03:10:03.309Z,17.00
2018-07-06T03:11:03.299Z,16.40
2018-07-06T03:12:03.302Z,16.50
2018-07-06T03:13:03.274Z,16.20
2018-07-06T03:14:03.268Z,17.00
2018-07-06T03:15:03.274Z,16.10
2018-07-06T03:16:03.249Z,18.20
2018-07-06T03:17:03.270Z,17.70
2018-07-06T03:18:03.242Z,16.90
2018-07-06T03:19:03.211Z,17.90
2018-07-06T03:20:03.200Z,18.20
2018-07-06T03:21:03.187Z,17.60
2018-07-06T03:22:03.181Z,16.20
2018-07-06T03:23:03.172Z,18.50
2018-07-06T03:24:03.174Z,19.00
2018-07-06T03:25:03.146Z,21.40
2018-07-06T03:26:03.133Z,17.70
2018-07-06T03:27:03.126Z,19.00
2018-07-06T03:28:03.137Z,20.10
2018-07-06T03:29:03.105Z,19.10
2018-07-06T03:30:03.091Z,17.00
2018-07-06T03:31:03.076Z,21.00
2018-07-06T03:32:03.065Z,20.70
2018-07-06T03:33:03.059Z,22.00
2018-07-06T03:34:03.048Z,17.40
2018-07-06T03:35:03.040Z,18.80
2018-07-06T03:36:03.057Z,20.10
2018-07-06T03:37:03.023Z,20.40
2018-07-06T03:38:03.030Z,18.70
2018-07-06T03:39:02.991Z,18.70
2018-07-06T03:40:02.977Z,18.70
2018-07-06T03:41:02.976Z,17.70
2018-07-06T03:42:02.984Z,17.60
2018-07-06T03:43:02.951Z,18.60
2018-07-06T03:44:02.935Z,19.20
2018-07-06T03:45:02.926Z,20.00
2018-07-06T03:46:02.916Z,19.70
2018-07-06T03:47:02.907Z,17.00
2018-07-06T03:48:02.934Z,18.60
2018-07-06T03:49:02.887Z,20.20
2018-07-06T03:50:02.872Z,19.50
2018-07-06T03:51:02.875Z,18.20
2018-07-06T03:52:02.851Z,17.00
2018-07-06T03:53:02.841Z,17.70
2018-07-06T03:54:02.855Z,19.00
2018-07-06T03:55:02.896Z,19.10
2018-07-06T03:56:02.812Z,21.00
2018-07-06T03:57:02.796Z,21.60
2018-07-06T03:58:02.783Z,18.10
2018-07-06T03:59:02.788Z,20.60
2018-07-06T04:00:02.823Z,24.20
2018-07-06T04:01:02.762Z,20.50
2018-07-06T04:02:02.740Z,20.10
2018-07-06T04:03:02.726Z,21.30
2018-07-06T04:04:02.715Z,21.00
2018-07-06T04:05:02.735Z,19.50
2018-07-06T04:06:02.705Z,18.40
2018-07-06T04:07:02.709Z,18.60
2018-07-06T04:08:02.679Z,18.90
2018-07-06T04:09:02.665Z,21.90
2018-07-06T04:10:02.675Z,17.40
2018-07-06T04:11:02.646Z,18.10
2018-07-06T04:12:02.643Z,20.00
2018-07-06T04:13:02.639Z,21.90
2018-07-06T04:14:02.625Z,20.20
2018-07-06T04:15:02.631Z,19.20
2018-07-06T04:16:02.635Z,16.30
2018-07-06T04:17:02.578Z,19.50
2018-07-06T04:18:02.568Z,20.10
2018-07-06T04:19:02.560Z,17.00
2018-07-06T04:20:02.550Z,18.80
2018-07-06T04:21:02.584Z,21.50
2018-07-06T04:22:02.524Z,20.30
2018-07-06T04:23:02.512Z,17.70
2018-07-06T04:24:02.500Z,15.10
2018-07-06T04:25:02.490Z,17.80
2018-07-06T04:26:02.484Z,16.80
2018-07-06T04:27:02.473Z,14.90
2018-07-06T04:28:02.462Z,17.90
2018-07-06T04:29:02.449Z,14.00
2018-07-06T04:30:02.437Z,13.40
2018-07-06T04:31:02.424Z,12.00
2018-07-06T04:32:02.422Z,11.80
2018-07-06T04:33:02.411Z,10.60
2018-07-06T04:34:02.402Z,12.40
2018-07-06T04:35:02.380Z,12.80
2018-07-06T04:36:02.371Z,12.60
2018-07-06T04:37:02.361Z,11.20
2018-07-06T04:38:02.352Z,11.20
2018-07-06T04:39:02.343Z,11.20
2018-07-06T04:40:02.333Z,11.70
2018-07-06T04:41:02.343Z,12.10
2018-07-06T04:42:02.306Z,10.50
2018-07-06T04:43:02.323Z,10.50
2018-07-06T04:44:02.282Z,10.70
2018-07-06T04:45:02.274Z,10.00
2018-07-06T04:46:02.291Z,10.00
2018-07-06T04:47:02.263Z,12.20
2018-07-06T04:48:02.239Z,10.80
2018-07-06T04:49:02.232Z,10.10
2018-07-06T04:50:02.223Z,8.90
2018-07-06T04:51:02.256Z,9.40
2018-07-06T04:52:02.207Z,9.00
2018-07-06T04:53:02.203Z,9.30
2018-07-06T04:54:02.183Z,9.80
2018-07-06T04:55:02.183Z,10.50
2018-07-06T04:56:02.172Z,9.40
2018-07-06T04:57:02.147Z,10.60
2018-07-06T04:58:02.158Z,10.10
2018-07-06T04:59:02.135Z,10.80
2018-07-06T05:00:02.137Z,10.30
2018-07-06T05:01:02.123Z,9.70
2018-07-06T05:02:02.101Z,10.70
2018-07-06T05:03:02.083Z,10.50
2018-07-06T05:04:02.076Z,11.90
2018-07-06T05:05:02.064Z,11.90
2018-07-06T05:06:02.086Z,12.10
2018-07-06T05:07:02.034Z,11.10
2018-07-06T05:08:02.035Z,9.90
2018-07-06T05:09:02.017Z,10.40
2018-07-06T05:10:02.007Z,10.50
2018-07-06T05:11:01.998Z,10.40
2018-07-06T05:12:01.989Z,11.30
2018-07-06T05:13:01.973Z,11.10
2018-07-06T05:14:01.962Z,10.80
2018-07-06T05:15:01.948Z,12.20
2018-07-06T05:16:01.944Z,13.70
2018-07-06T05:17:02.022Z,11.70
2018-07-06T05:18:01.930Z,12.80
2018-07-06T05:19:01.932Z,11.20
2018-07-06T05:20:01.894Z,11.70
2018-07-06T05:21:01.895Z,11.70
2018-07-06T05:22:01.906Z,12.20
2018-07-06T05:23:01.868Z,11.90
2018-07-06T05:24:01.859Z,12.20
2018-07-06T05:25:01.855Z,11.50
2018-07-06T05:26:01.831Z,11.80
2018-07-06T05:27:01.818Z,12.20
2018-07-06T05:28:01.809Z,13.50
2018-07-06T05:29:01.800Z,14.00
2018-07-06T05:30:01.790Z,13.80
2018-07-06T05:31:01.785Z,13.80
2018-07-06T05:32:01.809Z,14.40
2018-07-06T05:33:01.760Z,14.30
2018-07-06T05:34:01.761Z,13.50
2018-07-06T05:35:01.759Z,13.40
2018-07-06T05:36:01.728Z,12.90
2018-07-06T05:37:01.715Z,12.80
2018-07-06T05:38:01.730Z,12.50
2018-07-06T05:39:01.688Z,11.60
2018-07-06T05:40:01.677Z,12.20
2018-07-06T05:41:01.671Z,12.20
2018-07-06T05:42:01.677Z,12.00
2018-07-06T05:43:01.687Z,11.30
2018-07-06T05:44:01.649Z,11.60
2018-07-06T05:45:01.629Z,11.30
2018-07-06T05:46:01.635Z,12.50
2018-07-06T05:47:01.603Z,12.00
2018-07-06T05:48:01.669Z,11.50
2018-07-06T05:49:01.587Z,12.20
2018-07-06T05:50:01.577Z,13.70
2018-07-06T05:51:01.566Z,14.60
2018-07-06T05:52:01.548Z,13.80
2018-07-06T05:53:01.541Z,13.00
2018-07-06T05:54:01.563Z,13.20
2018-07-06T05:55:01.526Z,12.80
2018-07-06T05:56:01.513Z,12.00
2018-07-06T05:57:01.500Z,11.90
2018-07-06T05:58:01.490Z,12.00
2018-07-06T05:59:01.474Z,12.50
2018-07-06T06:00:01.466Z,12.70
2018-07-06T06:01:01.457Z,13.60
2018-07-06T06:02:01.447Z,13.20
2018-07-06T06:03:01.517Z,13.70
2018-07-06T06:04:01.429Z,13.80
2018-07-06T06:05:01.418Z,14.20
2018-07-06T06:06:01.421Z,14.70
2018-07-06T06:07:01.390Z,15.60
2018-07-06T06:08:01.386Z,15.00
2018-07-06T06:09:01.375Z,15.20
2018-07-06T06:10:01.388Z,15.90
2018-07-06T06:11:01.347Z,15.80
2018-07-06T06:12:01.341Z,16.40
2018-07-06T06:13:01.333Z,16.70
2018-07-06T06:14:01.325Z,16.30
2018-07-06T06:15:01.315Z,16.70
2018-07-06T06:16:01.309Z,17.80
2018-07-06T06:17:01.287Z,16.60
2018-07-06T06:18:01.281Z,16.30
2018-07-06T06:19:01.265Z,16.40
2018-07-06T06:20:01.253Z,16.20
2018-07-06T06:21:01.252Z,16.60
2018-07-06T06:22:01.236Z,16.90
2018-07-06T06:23:01.224Z,16.20
2018-07-06T06:24:01.211Z,16.40
2018-07-06T06:25:01.198Z,16.00
2018-07-06T06:26:01.222Z,17.20
2018-07-06T06:27:01.180Z,17.30
2018-07-06T06:28:01.175Z,16.60
2018-07-06T06:29:01.156Z,17.00
2018-07-06T06:30:01.149Z,17.00
2018-07-06T06:31:01.135Z,17.60
2018-07-06T06:32:01.146Z,17.70
2018-07-06T06:33:01.152Z,18.20
2018-07-06T06:34:01.289Z,18.40
2018-07-06T06:35:01.115Z,18.30
2018-07-06T06:36:01.085Z,17.80
2018-07-06T06:37:01.071Z,18.20
2018-07-06T06:38:01.056Z,18.00
2018-07-06T06:39:01.041Z,17.30
2018-07-06T06:40:01.040Z,18.00
2018-07-06T06:41:01.036Z,18.50
2018-07-06T06:42:01.034Z,17.60
2018-07-06T06:43:00.997Z,18.80
2018-07-06T06:44:00.987Z,17.70
2018-07-06T06:45:00.985Z,18.40
2018-07-06T06:46:00.979Z,18.30
2018-07-06T06:47:00.990Z,19.20
2018-07-06T06:48:00.950Z,19.80
2018-07-06T06:49:00.955Z,18.80
2018-07-06T06:50:00.924Z,20.30
2018-07-06T06:51:00.911Z,19.40
2018-07-06T06:52:00.901Z,20.20
2018-07-06T06:53:00.897Z,20.30
2018-07-06T06:54:00.883Z,20.10
2018-07-06T06:55:00.874Z,20.50
2018-07-06T06:56:00.856Z,21.90
2018-07-06T06:57:00.849Z,22.10
2018-07-06T06:58:00.842Z,21.70
2018-07-06T06:59:00.880Z,21.00
2018-07-06T07:00:00.819Z,19.60
2018-07-06T07:01:00.809Z,18.90
2018-07-06T07:02:00.794Z,20.10
2018-07-06T07:03:00.807Z,22.30
2018-07-06T07:04:00.769Z,23.30
2018-07-06T07:05:00.762Z,23.40
2018-07-06T07:06:00.753Z,24.30
2018-07-06T07:07:00.739Z,24.10
2018-07-06T07:08:00.729Z,23.50
2018-07-06T07:09:00.766Z,23.40
2018-07-06T07:10:00.707Z,22.60
2018-07-06T07:11:00.694Z,23.40
2018-07-06T07:12:00.686Z,21.90
2018-07-06T07:13:00.681Z,22.00
2018-07-06T07:14:00.774Z,21.50
2018-07-06T07:15:00.657Z,22.20
2018-07-06T07:16:00.637Z,22.30
2018-07-06T07:17:00.644Z,22.10
2018-07-06T07:18:00.641Z,22.90
2018-07-06T07:19:00.611Z,23.90
2018-07-06T07:20:00.598Z,22.90
2018-07-06T07:21:00.594Z,23.20
2018-07-06T07:22:00.575Z,22.20
2018-07-06T07:23:00.563Z,24.20
2018-07-06T07:24:00.554Z,23.70
2018-07-06T07:25:00.541Z,23.20
2018-07-06T07:26:00.536Z,23.10
2018-07-06T07:27:00.525Z,23.30
2018-07-06T07:28:00.512Z,22.50
2018-07-06T07:29:00.498Z,22.70
2018-07-06T07:30:00.510Z,21.90
2018-07-06T07:31:00.479Z,21.60
2018-07-06T07:32:00.477Z,22.40
2018-07-06T07:33:00.461Z,21.80
2018-07-06T07:34:00.470Z,21.80
2018-07-06T07:35:00.434Z,20.60
2018-07-06T07:36:00.423Z,21.40
2018-07-06T07:37:00.411Z,21.90
2018-07-06T07:38:00.407Z,21.80
2018-07-06T07:39:00.419Z,22.00
2018-07-06T07:40:00.385Z,21.40
2018-07-06T07:41:00.375Z,22.40
2018-07-06T07:42:00.358Z,21.80
2018-07-06T07:43:00.351Z,20.80
2018-07-06T07:44:00.341Z,20.70
2018-07-06T07:45:00.378Z,20.60
2018-07-06T07:46:00.327Z,20.10
2018-07-06T07:47:00.313Z,19.60
2018-07-06T07:48:00.295Z,18.70
2018-07-06T07:49:00.282Z,18.90
2018-07-06T07:50:00.279Z,18.00
2018-07-06T07:51:00.299Z,18.50
2018-07-06T07:52:00.274Z,18.20
2018-07-06T07:53:00.246Z,17.80
2018-07-06T07:54:00.235Z,17.80
2018-07-06T07:55:00.282Z,18.40
2018-07-06T07:56:00.221Z,18.50
2018-07-06T07:57:00.196Z,18.50
2018-07-06T07:58:00.192Z,18.80
2018-07-06T07:59:00.178Z,18.20
2018-07-06T08:00:00.166Z,17.90
2018-07-06T08:01:00.345Z,17.40
2018-07-06T08:02:00.160Z,17.60
2018-07-06T08:03:00.136Z,18.00
2018-07-06T08:04:00.126Z,17.60
2018-07-06T08:05:00.127Z,17.70
2018-07-06T08:06:00.128Z,16.90
2018-07-06T08:07:00.090Z,17.00
2018-07-06T08:08:00.080Z,17.00
2018-07-06T08:09:00.067Z,17.20
2018-07-06T08:10:00.064Z,17.50
2018-07-06T08:11:00.050Z,17.30
2018-07-06T08:12:00.042Z,18.10
2018-07-06T08:13:00.039Z,16.30
2018-07-06T08:14:04.909Z,16.90
2018-07-06T08:15:00.016Z,16.70
2018-07-06T08:15:59.995Z,17.40
2018-07-06T08:17:00.017Z,16.50
2018-07-06T08:17:59.969Z,17.50
2018-07-06T08:18:59.961Z,18.00
2018-07-06T08:19:59.949Z,17.50
2018-07-06T08:20:59.940Z,18.00
2018-07-06T08:21:59.932Z,16.80
2018-07-06T08:22:59.922Z,17.30
2018-07-06T08:23:59.908Z,17.20
2018-07-06T08:24:59.901Z,18.30
2018-07-06T08:25:59.882Z,18.30
2018-07-06T08:26:59.875Z,17.20
2018-07-06T08:27:59.869Z,16.50
2018-07-06T08:28:59.854Z,16.50
2018-07-06T08:29:59.849Z,18.00
2018-07-06T08:30:59.833Z,17.60
2018-07-06T08:31:59.822Z,17.80
2018-07-06T08:32:59.808Z,17.20
2018-07-06T08:33:59.803Z,16.80
2018-07-06T08:34:59.807Z,17.00
2018-07-06T08:35:59.781Z,17.00
2018-07-06T08:36:59.771Z,16.70
2018-07-06T08:37:59.775Z,17.00
2018-07-06T08:38:59.746Z,16.60
2018-07-06T08:39:59.751Z,16.60
2018-07-06T08:40:59.745Z,16.60
2018-07-06T08:41:59.727Z,16.30
2018-07-06T08:42:59.731Z,16.10
2018-07-06T08:43:59.695Z,15.90
2018-07-06T08:44:59.776Z,15.70
2018-07-06T08:45:59.667Z,16.00
2018-07-06T08:46:59.659Z,15.70
2018-07-06T08:47:59.651Z,15.70
2018-07-06T08:48:59.648Z,16.30
2018-07-06T08:49:59.627Z,15.90
2018-07-06T08:50:59.623Z,15.50
2018-07-06T08:51:59.637Z,15.50
2018-07-06T08:52:59.593Z,15.30
2018-07-06T08:53:59.594Z,15.40
2018-07-06T08:54:59.583Z,15.50
2018-07-06T08:55:59.587Z,15.20
2018-07-06T08:56:59.556Z,14.30
2018-07-06T08:57:59.537Z,14.70
2018-07-06T08:58:59.569Z,15.10
2018-07-06T08:59:59.524Z,14.40
2018-07-06T09:00:59.543Z,14.50
2018-07-06T09:01:59.503Z,14.80
2018-07-06T09:02:59.489Z,13.90
2018-07-06T09:03:59.513Z,14.10
2018-07-06T09:04:59.464Z,14.80
2018-07-06T09:05:59.461Z,14.50
2018-07-06T09:06:59.447Z,14.70
2018-07-06T09:07:59.445Z,14.30
2018-07-06T09:08:59.474Z,14.40
2018-07-06T09:09:59.441Z,14.20
2018-07-06T09:10:59.404Z,13.90
2018-07-06T09:11:59.396Z,13.80
2018-07-06T09:12:59.394Z,13.20
2018-07-06T09:13:59.378Z,13.00
2018-07-06T09:14:59.392Z,12.40
2018-07-06T09:15:59.369Z,13.10
2018-07-06T09:16:59.344Z,14.00
2018-07-06T09:17:59.331Z,13.60
2018-07-06T09:18:59.319Z,13.10
2018-07-06T09:19:59.601Z,13.00
2018-07-06T09:20:59.307Z,12.90
2018-07-06T09:21:59.287Z,12.90
2018-07-06T09:22:59.276Z,12.60
2018-07-06T09:23:59.268Z,13.20
2018-07-06T09:24:59.256Z,13.30
2018-07-06T09:25:59.543Z,13.30
2018-07-06T09:26:59.238Z,13.10
2018-07-06T09:27:59.227Z,13.00
2018-07-06T09:28:59.220Z,12.70
2018-07-06T09:29:59.219Z,13.40
2018-07-06T09:30:59.193Z,13.00
2018-07-06T09:31:59.184Z,13.40
2018-07-06T09:32:59.170Z,13.30
2018-07-06T09:33:59.169Z,12.90
2018-07-06T09:34:59.195Z,12.60
2018-07-06T09:35:59.152Z,11.10
2018-07-06T09:36:59.129Z,11.70
2018-07-06T09:37:59.130Z,11.50
2018-07-06T09:38:59.130Z,12.20
2018-07-06T09:39:59.127Z,11.90
2018-07-06T09:40:59.135Z,11.40
2018-07-06T09:41:59.096Z,12.10
2018-07-06T09:42:59.073Z,12.20
2018-07-06T09:43:59.064Z,12.20
2018-07-06T09:44:59.048Z,11.80
2018-07-06T09:45:59.063Z,10.90
2018-07-06T09:46:59.034Z,11.00
2018-07-06T09:47:59.026Z,11.00
2018-07-06T09:48:59.015Z,11.70
2018-07-06T09:49:58.997Z,11.30
2018-07-06T09:50:59.043Z,11.10
2018-07-06T09:51:58.987Z,11.00
2018-07-06T09:52:58.972Z,12.00
2018-07-06T09:53:58.955Z,11.80
2018-07-06T09:54:58.948Z,11.00
2018-07-06T09:55:58.974Z,11.00
2018-07-06T09:56:58.926Z,11.50
2018-07-06T09:57:58.925Z,11.70
2018-07-06T09:58:58.909Z,11.50
2018-07-06T09:59:58.898Z,10.90
2018-07-06T10:00:58.910Z,11.70
2018-07-06T10:01:58.921Z,12.10
2018-07-06T10:02:58.897Z,12.80
2018-07-06T10:03:58.859Z,12.00
2018-07-06T10:04:58.844Z,12.20
2018-07-06T10:05:58.869Z,12.40
2018-07-06T10:06:58.824Z,12.10
2018-07-06T10:07:58.820Z,13.00
2018-07-06T10:08:58.817Z,13.20
2018-07-06T10:09:58.800Z,14.10
2018-07-06T10:10:58.796Z,13.80
2018-07-06T10:11:58.778Z,13.40
2018-07-06T10:12:58.763Z,12.90
2018-07-06T10:13:58.752Z,13.70
2018-07-06T10:14:58.738Z,13.40
2018-07-06T10:15:58.800Z,13.40
2018-07-06T10:16:58.716Z,12.20
2018-07-06T10:17:58.713Z,12.40
2018-07-06T10:18:58.699Z,11.80
2018-07-06T10:19:58.697Z,12.60
2018-07-06T10:20:58.682Z,12.70
2018-07-06T10:21:58.753Z,13.30
2018-07-06T10:22:58.655Z,12.60
2018-07-06T10:23:58.644Z,12.80
2018-07-06T10:24:58.636Z,12.90
2018-07-06T10:25:58.620Z,12.80
2018-07-06T10:26:58.622Z,13.00
2018-07-06T10:27:58.625Z,12.00
2018-07-06T10:28:58.587Z,12.90
2018-07-06T10:29:58.584Z,13.40
2018-07-06T10:30:58.585Z,13.80
2018-07-06T10:31:58.575Z,12.60
2018-07-06T10:32:58.590Z,12.80
2018-07-06T10:33:58.581Z,12.50
2018-07-06T10:34:58.531Z,11.90
2018-07-06T10:35:58.526Z,12.50
2018-07-06T10:36:58.521Z,12.40
2018-07-06T10:37:58.503Z,12.30
2018-07-06T10:38:58.486Z,13.70
2018-07-06T10:39:58.509Z,12.20
2018-07-06T10:40:58.462Z,12.40
2018-07-06T10:41:58.491Z,12.00
2018-07-06T10:42:58.452Z,11.70
2018-07-06T10:43:58.438Z,12.60
2018-07-06T10:44:58.441Z,11.70
2018-07-06T10:45:58.425Z,11.20
2018-07-06T10:46:58.410Z,11.10
2018-07-06T10:47:58.409Z,11.20
2018-07-06T10:48:58.391Z,12.10
2018-07-06T10:49:58.382Z,11.20
2018-07-06T10:50:58.368Z,11.90
2018-07-06T10:51:58.360Z,11.30
2018-07-06T10:52:58.355Z,10.90
2018-07-06T10:53:58.333Z,11.50
2018-07-06T10:54:58.329Z,10.20
2018-07-06T10:55:58.320Z,9.80
2018-07-06T10:56:58.309Z,10.00
2018-07-06T10:57:58.297Z,11.20
2018-07-06T10:58:58.292Z,10.80
2018-07-06T10:59:58.279Z,12.40
2018-07-06T11:00:58.268Z,12.00
2018-07-06T11:01:58.260Z,11.40
2018-07-06T11:02:58.279Z,10.60
2018-07-06T11:03:58.236Z,11.90
2018-07-06T11:04:58.250Z,11.70
2018-07-06T11:05:58.211Z,11.10
2018-07-06T11:06:58.202Z,12.00
2018-07-06T11:07:58.195Z,12.30
2018-07-06T11:08:58.229Z,12.50
2018-07-06T11:09:58.176Z,12.30
2018-07-06T11:10:58.163Z,11.70
2018-07-06T11:11:58.150Z,10.20
2018-07-06T11:12:58.138Z,10.40
2018-07-06T11:13:58.138Z,11.20
2018-07-06T11:14:58.121Z,11.20
2018-07-06T11:15:58.112Z,10.60
2018-07-06T11:16:58.105Z,9.80
2018-07-06T11:17:58.109Z,12.00
2018-07-06T11:18:58.087Z,13.60
2018-07-06T11:19:58.071Z,12.70
2018-07-06T11:20:58.064Z,13.40
2018-07-06T11:21:58.050Z,13.10
2018-07-06T11:22:58.041Z,12.60
2018-07-06T11:23:58.033Z,10.50
2018-07-06T11:24:58.023Z,11.10
2018-07-06T11:25:58.017Z,10.10
2018-07-06T11:26:58.006Z,10.10
2018-07-06T11:27:57.997Z,10.10
2018-07-06T11:28:57.992Z,9.90
2018-07-06T11:29:57.979Z,9.30
2018-07-06T11:30:57.973Z,9.30
2018-07-06T11:31:57.972Z,9.20
2018-07-06T11:32:57.950Z,10.00
2018-07-06T11:33:57.952Z,10.10
2018-07-06T11:34:57.926Z,8.60
2018-07-06T11:35:57.919Z,9.80
2018-07-06T11:36:57.909Z,9.80
2018-07-06T11:37:57.973Z,9.00
2018-07-06T11:38:57.913Z,8.70
2018-07-06T11:39:57.882Z,10.10
2018-07-06T11:40:57.876Z,8.80
2018-07-06T11:41:57.860Z,9.50
2018-07-06T11:42:57.854Z,8.70
2018-07-06T11:43:57.878Z,8.30
2018-07-06T11:44:57.959Z,7.60
2018-07-06T11:45:57.828Z,7.40
2018-07-06T11:46:57.819Z,7.00
2018-07-06T11:47:57.808Z,6.40
2018-07-06T11:48:57.796Z,7.10
2018-07-06T11:49:57.796Z,8.10
2018-07-06T11:50:57.793Z,8.10
2018-07-06T11:51:57.773Z,8.90
2018-07-06T11:52:57.766Z,7.80
2018-07-06T11:53:57.751Z,6.70
2018-07-06T11:54:57.750Z,7.50
2018-07-06T11:55:57.739Z,7.20
2018-07-06T11:56:57.727Z,8.20
2018-07-06T11:57:57.724Z,7.40
2018-07-06T11:58:57.717Z,8.20
2018-07-06T11:59:57.728Z,7.60
2018-07-06T12:00:57.689Z,7.90
2018-07-06T12:01:57.688Z,8.20
2018-07-06T12:02:57.676Z,8.00
2018-07-06T12:03:57.694Z,8.50
2018-07-06T12:04:57.677Z,7.80
2018-07-06T12:05:57.642Z,9.00
2018-07-06T12:06:57.639Z,8.50
2018-07-06T12:07:57.653Z,8.00
2018-07-06T12:08:57.626Z,7.10
2018-07-06T12:09:57.614Z,7.70
2018-07-06T12:10:57.600Z,8.50
2018-07-06T12:11:57.589Z,8.00
2018-07-06T12:12:57.580Z,8.30
2018-07-06T12:13:57.565Z,8.20
2018-07-06T12:14:57.559Z,7.40
2018-07-06T12:15:57.551Z,7.50
2018-07-06T12:16:57.549Z,7.30
2018-07-06T12:17:57.528Z,7.90
2018-07-06T12:18:57.519Z,7.80
2018-07-06T12:19:57.541Z,7.00
2018-07-06T12:20:57.557Z,7.40
2018-07-06T12:21:57.500Z,6.50
2018-07-06T12:22:57.487Z,5.50
2018-07-06T12:23:57.479Z,6.60
2018-07-06T12:24:57.471Z,5.90
2018-07-06T12:25:57.458Z,5.40
2018-07-06T12:26:57.446Z,6.20
2018-07-06T12:27:57.480Z,5.70
2018-07-06T12:28:57.431Z,6.60
2018-07-06T12:29:57.422Z,5.40
2018-07-06T12:30:57.412Z,6.30
2018-07-06T12:31:57.420Z,5.60
2018-07-06T12:32:57.386Z,6.70
2018-07-06T12:33:57.411Z,19.00
2018-07-06T12:34:57.370Z,6.70
2018-07-06T12:35:57.379Z,6.50
2018-07-06T12:36:57.366Z,6.50
2018-07-06T12:37:57.340Z,6.20
2018-07-06T12:38:57.333Z,6.90
2018-07-06T12:39:57.322Z,7.00
2018-07-06T12:40:57.333Z,6.50
2018-07-06T12:41:57.310Z,5.90
2018-07-06T12:42:57.296Z,6.50
2018-07-06T12:43:57.289Z,6.10
2018-07-06T12:44:57.313Z,5.50
2018-07-06T12:45:57.321Z,5.50
2018-07-06T12:46:57.260Z,6.30
2018-07-06T12:47:57.265Z,6.20
2018-07-06T12:48:57.247Z,5.80
2018-07-06T12:49:57.231Z,5.80
2018-07-06T12:50:57.226Z,6.20
2018-07-06T12:51:57.216Z,6.50
2018-07-06T12:52:57.208Z,6.50
2018-07-06T12:53:57.222Z,7.00
2018-07-06T12:54:57.204Z,7.20